createdAt,value
2023-11-04T00:01:50.154Z,82.23
2023-11-04T00:04:20.699Z,81.99
2023-11-04T00:06:51.520Z,81.83
2023-11-04T00:09:37.814Z,82.08
2023-11-04T00:12:18.839Z,81.93
2023-11-04T00:14:54.712Z,81.85
2023-11-04T00:17:25.944Z,82.25
2023-11-04T00:19:57.875Z,82.38
2023-11-04T00:22:28.348Z,82.42
2023-11-04T00:25:02.187Z,82.60
2023-11-04T00:27:33.700Z,82.67
2023-11-04T00:30:07.458Z,83.12
2023-11-04T00:32:43.208Z,83.00
2023-11-04T00:35:13.580Z,83.08
2023-11-04T00:37:44.994Z,83.15
2023-11-04T00:40:17.270Z,83.47
2023-11-04T00:42:48.393Z,83.31
2023-11-04T00:45:21.735Z,83.56
2023-11-04T00:48:05.576Z,83.51
2023-11-04T00:50:38.318Z,83.15
2023-11-04T00:53:13.664Z,82.82
2023-11-04T00:55:44.871Z,82.95
2023-11-04T00:58:15.759Z,82.98
2023-11-04T01:00:49.344Z,83.34
2023-11-04T01:03:20.560Z,83.56
2023-11-04T01:05:51.663Z,83.15
2023-11-04T01:08:23.392Z,83.19
2023-11-04T01:10:55.179Z,83.87
2023-11-04T01:13:26.316Z,83.35
2023-11-04T01:15:59.670Z,83.43
2023-11-04T01:18:30.169Z,83.17
2023-11-04T01:21:00.473Z,83.09
2023-11-04T01:23:34.044Z,83.17
2023-11-04T01:26:04.850Z,82.97
2023-11-04T01:28:39.580Z,82.34
2023-11-04T01:31:15.752Z,82.49
2023-11-04T01:33:47.548Z,82.38
2023-11-04T01:36:18.551Z,82.28
2023-11-04T01:38:49.619Z,82.43
2023-11-04T01:41:20.689Z,82.87
2023-11-04T01:43:59.742Z,82.40
2023-11-04T01:46:35.416Z,82.69
2023-11-04T01:49:09.401Z,82.59
2023-11-04T01:51:49.386Z,82.44
2023-11-04T01:54:36.523Z,82.31
2023-11-04T01:57:09.037Z,81.98
2023-11-04T01:59:46.227Z,82.18
2023-11-04T02:02:22.378Z,82.02
2023-11-04T02:04:54.252Z,82.21
2023-11-04T02:07:27.036Z,81.93
2023-11-04T02:09:58.959Z,81.73
2023-11-04T02:12:29.568Z,81.93
2023-11-04T02:15:03.024Z,82.43
2023-11-04T02:17:36.066Z,82.50
2023-11-04T02:20:09.362Z,82.05
2023-11-04T02:22:42.334Z,82.34
2023-11-04T02:25:16.257Z,82.46
2023-11-04T02:27:50.419Z,82.44
2023-11-04T02:30:21.231Z,82.62
2023-11-04T02:32:52.804Z,82.59
2023-11-04T02:35:30.750Z,82.00
2023-11-04T02:38:04.250Z,82.03
2023-11-04T02:40:34.812Z,82.10
2023-11-04T02:43:06.634Z,82.20
2023-11-04T02:45:39.588Z,82.47
2023-11-04T02:48:13.287Z,82.18
2023-11-04T02:50:54.804Z,82.23
2023-11-04T02:53:28.383Z,82.65
2023-11-04T02:55:58.651Z,82.01
2023-11-04T02:58:29.047Z,82.18
2023-11-04T03:01:02.556Z,81.99
2023-11-04T03:03:36.258Z,81.72
2023-11-04T03:06:14.852Z,82.01
2023-11-04T03:08:51.551Z,82.55
2023-11-04T03:11:25.679Z,82.15
2023-11-04T03:13:56.122Z,82.23
2023-11-04T03:16:28.507Z,82.07
2023-11-04T03:18:59.765Z,82.14
2023-11-04T03:21:30.580Z,82.04
2023-11-04T03:24:03.455Z,81.86
2023-11-04T03:26:35.937Z,81.77
2023-11-04T03:29:09.466Z,80.87
2023-11-04T03:31:44.024Z,81.10
2023-11-04T03:34:14.831Z,81.28
2023-11-04T03:36:45.398Z,80.97
2023-11-04T03:39:20.523Z,80.92
2023-11-04T03:41:53.306Z,81.12
2023-11-04T03:44:24.062Z,81.48
2023-11-04T03:47:03.815Z,81.40
2023-11-04T03:49:36.907Z,81.45
2023-11-04T03:52:08.917Z,81.62
2023-11-04T03:54:42.384Z,81.93
2023-11-04T03:57:13.946Z,81.72
2023-11-04T03:59:44.702Z,82.25
2023-11-04T04:02:18.194Z,82.03
2023-11-04T04:04:48.959Z,82.20
2023-11-04T04:07:19.309Z,82.03
2023-11-04T04:09:53.027Z,82.44
2023-11-04T04:12:24.757Z,82.25
2023-11-04T04:14:55.492Z,82.68
2023-11-04T04:17:26.469Z,82.63
2023-11-04T04:20:01.317Z,82.74
2023-11-04T04:22:36.877Z,82.38
2023-11-04T04:25:11.436Z,82.59
2023-11-04T04:27:45.694Z,82.19
2023-11-04T04:30:17.367Z,82.08
2023-11-04T04:32:50.596Z,82.14
2023-11-04T04:35:20.972Z,81.98
2023-11-04T04:37:54.463Z,82.36
2023-11-04T04:40:29.899Z,82.18
2023-11-04T04:43:00.731Z,81.98
2023-11-04T04:45:37.076Z,82.24
2023-11-04T04:48:08.398Z,82.43
2023-11-04T04:50:39.694Z,82.30
2023-11-04T04:53:11.970Z,81.87
2023-11-04T04:55:45.513Z,82.35
2023-11-04T04:58:15.850Z,81.97
2023-11-04T05:00:49.114Z,82.31
2023-11-04T05:03:20.290Z,82.58
2023-11-04T05:05:52.792Z,82.69
2023-11-04T05:08:24.640Z,82.73
2023-11-04T05:11:00.332Z,82.68
2023-11-04T05:13:31.428Z,82.76
2023-11-04T05:16:04.214Z,82.69
2023-11-04T05:18:35.402Z,82.84
2023-11-04T05:21:09.703Z,83.26
2023-11-04T05:23:40.308Z,82.95
2023-11-04T05:26:14.428Z,82.81
2023-11-04T05:28:49.725Z,82.51
2023-11-04T05:31:26.500Z,82.31
2023-11-04T05:33:59.527Z,82.59
2023-11-04T05:36:30.431Z,83.09
2023-11-04T05:39:01.887Z,82.97
2023-11-04T05:41:35.571Z,82.99
2023-11-04T05:44:11.747Z,82.73
2023-11-04T05:46:42.527Z,82.44
2023-11-04T05:49:13.356Z,82.67
2023-11-04T05:51:44.738Z,82.44
2023-11-04T05:54:22.285Z,82.63
2023-11-04T05:56:58.618Z,82.52
2023-11-04T05:59:29.113Z,82.83
2023-11-04T06:02:05.019Z,82.41
2023-11-04T06:04:36.939Z,82.96
2023-11-04T06:07:08.372Z,82.88
2023-11-04T06:09:41.626Z,82.26
2023-11-04T06:12:16.111Z,81.97
2023-11-04T06:14:51.453Z,82.12
2023-11-04T06:17:22.236Z,81.85
2023-11-04T06:19:52.542Z,81.28
2023-11-04T06:22:23.604Z,80.65
2023-11-04T06:24:54.838Z,80.79
2023-11-04T06:27:28.373Z,80.81
2023-11-04T06:30:01.236Z,81.31
2023-11-04T06:32:35.342Z,81.17
2023-11-04T06:35:06.828Z,79.85
2023-11-04T06:37:37.306Z,79.94
2023-11-04T06:40:11.225Z,80.07
2023-11-04T06:42:47.991Z,80.07
2023-11-04T06:45:20.078Z,79.53
2023-11-04T06:47:53.436Z,78.69
2023-11-04T06:50:24.088Z,77.47
2023-11-04T06:52:54.932Z,76.79
2023-11-04T06:55:29.707Z,75.75
2023-11-04T06:58:04.130Z,75.12
2023-11-04T07:00:35.006Z,75.10
2023-11-04T07:03:10.544Z,74.88
2023-11-04T07:05:42.269Z,74.90
2023-11-04T07:08:12.548Z,74.76
2023-11-04T07:10:43.807Z,74.87
2023-11-04T07:13:17.645Z,74.50
2023-11-04T07:15:49.935Z,74.75
2023-11-04T07:18:21.080Z,74.27
2023-11-04T07:20:54.100Z,73.74
2023-11-04T07:23:24.889Z,72.94
2023-11-04T07:25:55.833Z,69.08
2023-11-04T07:28:37.823Z,66.81
2023-11-04T07:31:09.504Z,65.55
2023-11-04T07:33:42.903Z,64.44
2023-11-04T07:36:13.925Z,64.38
2023-11-04T07:38:44.866Z,65.76
2023-11-04T07:41:15.447Z,65.38
2023-11-04T07:43:49.700Z,64.13
2023-11-04T07:46:27.704Z,63.20
2023-11-04T07:48:58.001Z,62.71
2023-11-04T07:51:28.329Z,62.11
2023-11-04T07:53:59.673Z,62.67
2023-11-04T07:56:30.464Z,62.76
2023-11-04T07:59:03.877Z,63.91
2023-11-04T08:01:35.014Z,64.79
2023-11-04T08:04:05.592Z,65.31
2023-11-04T08:06:37.483Z,64.71
2023-11-04T08:09:12.225Z,64.39
2023-11-04T08:11:43.007Z,63.53
2023-11-04T08:14:16.036Z,64.21
2023-11-04T08:16:49.012Z,63.77
2023-11-04T08:19:19.799Z,64.25
2023-11-04T08:21:56.478Z,63.83
2023-11-04T08:24:27.413Z,64.96
2023-11-04T08:26:59.570Z,64.06
2023-11-04T08:29:34.356Z,64.71
2023-11-04T08:32:06.069Z,64.43
2023-11-04T08:34:38.362Z,63.24
2023-11-04T08:37:11.629Z,63.92
2023-11-04T08:39:49.857Z,63.55
2023-11-04T08:42:20.651Z,63.40
2023-11-04T08:44:53.325Z,62.01
2023-11-04T08:47:24.727Z,61.74
2023-11-04T08:49:58.475Z,61.28
2023-11-04T08:52:28.745Z,59.85
2023-11-04T08:55:05.541Z,60.02
2023-11-04T08:57:40.097Z,59.88
2023-11-04T09:00:17.236Z,58.05
2023-11-04T09:02:50.542Z,57.71
2023-11-04T09:05:28.617Z,59.23
2023-11-04T09:08:04.361Z,58.81
2023-11-04T09:10:34.344Z,59.18
2023-11-04T09:13:10.186Z,57.88
2023-11-04T09:15:44.088Z,58.89
2023-11-04T09:18:19.236Z,60.08
2023-11-04T09:20:50.229Z,59.42
2023-11-04T09:23:21.029Z,60.05
2023-11-04T09:25:54.166Z,59.64
2023-11-04T09:28:28.251Z,59.99
2023-11-04T09:31:03.902Z,59.71
2023-11-04T09:33:35.830Z,59.37
2023-11-04T09:36:10.317Z,61.17
2023-11-04T09:38:43.781Z,60.60
2023-11-04T09:41:14.329Z,60.78
2023-11-04T09:43:45.258Z,61.09
2023-11-04T09:46:19.067Z,61.54
2023-11-04T09:48:53.147Z,60.90
2023-11-04T09:51:25.920Z,60.17
2023-11-04T09:54:05.378Z,60.81
2023-11-04T09:56:36.220Z,59.05
2023-11-04T09:59:09.598Z,58.77
2023-11-04T10:01:44.453Z,59.54
2023-11-04T10:04:15.578Z,59.04
2023-11-04T10:06:47.439Z,58.93
2023-11-04T10:09:21.247Z,58.80
2023-11-04T10:11:52.322Z,58.74
2023-11-04T10:14:23.913Z,59.79
2023-11-04T10:16:57.500Z,59.92
2023-11-04T10:19:29.027Z,60.84
2023-11-04T10:22:03.152Z,60.67
2023-11-04T10:24:33.759Z,62.01
2023-11-04T10:27:05.076Z,63.40
2023-11-04T10:29:37.600Z,64.87
2023-11-04T10:32:16.018Z,66.33
2023-11-04T10:34:52.023Z,65.93
2023-11-04T10:37:23.279Z,66.16
2023-11-04T10:39:59.020Z,67.17
2023-11-04T10:42:33.294Z,67.72
2023-11-04T10:45:12.001Z,67.39
2023-11-04T10:47:57.908Z,67.37
2023-11-04T10:50:35.537Z,67.87
2023-11-04T10:53:13.170Z,68.36
2023-11-04T10:56:02.182Z,68.36
2023-11-04T10:58:43.208Z,67.70
2023-11-04T11:01:15.672Z,66.58
2023-11-04T11:03:51.155Z,66.59
2023-11-04T11:06:22.116Z,64.15
2023-11-04T11:08:53.381Z,64.08
2023-11-04T11:11:34.437Z,64.18
2023-11-04T11:14:06.467Z,64.61
2023-11-04T11:16:37.626Z,62.86
2023-11-04T11:19:18.403Z,63.42
2023-11-04T11:21:54.853Z,61.32
2023-11-04T11:24:26.815Z,60.93
2023-11-04T11:27:09.305Z,59.62
2023-11-04T11:29:58.075Z,59.11
2023-11-04T11:32:38.294Z,59.77
2023-11-04T11:35:14.755Z,57.16
2023-11-04T11:37:51.786Z,55.57
2023-11-04T11:40:47.657Z,56.15
2023-11-04T11:43:25.354Z,54.40
2023-11-04T11:45:57.400Z,54.10
2023-11-04T11:48:31.011Z,53.87
2023-11-04T11:51:12.931Z,54.55
2023-11-04T11:53:48.173Z,54.39
2023-11-04T11:56:19.600Z,53.31
2023-11-04T11:58:52.526Z,53.49
2023-11-04T12:01:25.701Z,55.05
2023-11-04T12:03:57.095Z,54.69
2023-11-04T12:06:30.836Z,56.79
2023-11-04T12:09:04.884Z,54.76
2023-11-04T12:11:41.494Z,54.31
2023-11-04T12:14:22.788Z,52.81
2023-11-04T12:16:54.502Z,51.46
2023-11-04T12:19:29.101Z,51.18
2023-11-04T12:22:03.891Z,50.66
2023-11-04T12:24:39.298Z,50.35
2023-11-04T12:27:15.464Z,49.68
2023-11-04T12:29:47.193Z,49.56
2023-11-04T12:32:23.996Z,48.76
2023-11-04T12:34:57.367Z,50.21
2023-11-04T12:37:34.413Z,50.02
2023-11-04T12:40:05.547Z,49.55
2023-11-04T12:42:46.603Z,48.67
2023-11-04T12:45:22.744Z,49.19
2023-11-04T12:47:53.036Z,48.95
2023-11-04T12:50:23.066Z,49.01
2023-11-04T12:53:05.027Z,49.91
2023-11-04T12:55:37.456Z,50.25
2023-11-04T12:58:11.211Z,49.67
2023-11-04T13:00:42.344Z,49.64
2023-11-04T13:03:14.085Z,51.26
2023-11-04T13:05:45.194Z,51.81
2023-11-04T13:08:19.831Z,53.54
2023-11-04T13:10:50.208Z,52.67
2023-11-04T13:13:28.390Z,54.41
2023-11-04T13:16:01.392Z,55.33
2023-11-04T13:18:31.739Z,54.40
2023-11-04T13:21:04.367Z,54.87
2023-11-04T13:23:39.556Z,55.15
2023-11-04T13:26:09.928Z,55.30
2023-11-04T13:28:39.887Z,55.62
2023-11-04T13:31:10.759Z,55.68
2023-11-04T13:33:49.171Z,55.12
2023-11-04T13:36:22.743Z,55.07
2023-11-04T13:39:03.615Z,55.21
2023-11-04T13:41:43.832Z,54.94
2023-11-04T13:44:20.213Z,54.52
2023-11-04T13:46:58.117Z,54.64
2023-11-04T13:49:29.247Z,54.85
2023-11-04T13:52:00.260Z,55.03
2023-11-04T13:54:35.122Z,55.02
2023-11-04T13:57:09.421Z,54.90
2023-11-04T13:59:48.536Z,55.32
2023-11-04T14:02:19.491Z,55.90
2023-11-04T14:04:50.467Z,54.99
2023-11-04T14:07:21.326Z,55.02
2023-11-04T14:09:54.857Z,55.12
2023-11-04T14:12:28.325Z,55.56
2023-11-04T14:14:58.599Z,55.26
2023-11-04T14:17:29.907Z,55.88
2023-11-04T14:20:01.718Z,56.66
2023-11-04T14:22:34.594Z,56.17
2023-11-04T14:25:08.571Z,56.66
2023-11-04T14:27:38.960Z,57.33
2023-11-04T14:30:12.599Z,57.56
2023-11-04T14:32:45.951Z,58.22
2023-11-04T14:35:16.812Z,59.45
2023-11-04T14:37:49.610Z,59.90
2023-11-04T14:40:26.143Z,60.32
2023-11-04T14:43:01.636Z,60.97
2023-11-04T14:45:39.125Z,61.77
2023-11-04T14:48:11.486Z,62.66
2023-11-04T14:50:46.524Z,63.57
2023-11-04T14:53:27.487Z,64.57
2023-11-04T14:56:00.424Z,65.25
2023-11-04T14:58:31.550Z,65.34
2023-11-04T15:01:02.280Z,66.40
2023-11-04T15:03:33.187Z,67.00
2023-11-04T15:06:08.301Z,67.38
2023-11-04T15:08:38.783Z,67.77
2023-11-04T15:11:12.713Z,68.87
2023-11-04T15:13:44.078Z,68.82
2023-11-04T15:16:14.946Z,68.50
2023-11-04T15:18:48.036Z,68.73
2023-11-04T15:21:18.892Z,69.23
2023-11-04T15:23:52.349Z,68.91
2023-11-04T15:26:26.058Z,69.16
2023-11-04T15:28:57.032Z,70.05
2023-11-04T15:31:27.904Z,69.93
2023-11-04T15:33:58.622Z,70.58
2023-11-04T15:36:30.823Z,70.80
2023-11-04T15:39:01.712Z,71.51
2023-11-04T15:41:37.040Z,71.84
2023-11-04T15:44:10.864Z,72.02
2023-11-04T15:46:47.684Z,72.53
2023-11-04T15:49:19.018Z,72.94
2023-11-04T15:51:50.503Z,73.17
2023-11-04T15:54:21.427Z,73.45
2023-11-04T15:56:55.272Z,73.90
2023-11-04T15:59:25.594Z,74.40
2023-11-04T16:02:01.846Z,74.18
2023-11-04T16:04:32.493Z,74.63
2023-11-04T16:07:10.379Z,74.98
2023-11-04T16:09:42.058Z,75.03
2023-11-04T16:12:18.342Z,75.12
2023-11-04T16:14:48.683Z,75.44
2023-11-04T16:17:19.154Z,75.27
2023-11-04T16:19:49.459Z,75.98
2023-11-04T16:22:22.886Z,76.12
2023-11-04T16:24:54.215Z,76.08
2023-11-04T16:27:28.155Z,76.25
2023-11-04T16:29:58.857Z,76.27
2023-11-04T16:32:30.229Z,76.13
2023-11-04T16:35:01.157Z,76.62
2023-11-04T16:37:31.845Z,76.29
2023-11-04T16:40:07.205Z,76.52
2023-11-04T16:42:42.851Z,76.69
2023-11-04T16:45:16.724Z,76.64
2023-11-04T16:47:50.292Z,76.85
2023-11-04T16:50:24.115Z,76.63
2023-11-04T16:52:55.047Z,76.88
2023-11-04T16:55:26.005Z,77.03
2023-11-04T16:58:01.654Z,77.31
2023-11-04T17:00:32.405Z,77.42
2023-11-04T17:03:03.587Z,77.34
2023-11-04T17:05:34.037Z,77.77
2023-11-04T17:08:06.726Z,77.45
2023-11-04T17:10:37.770Z,77.92
2023-11-04T17:13:10.369Z,77.80
2023-11-04T17:15:44.515Z,77.79
2023-11-04T17:18:16.880Z,77.57
2023-11-04T17:20:47.686Z,78.04
2023-11-04T17:23:18.570Z,78.11
2023-11-04T17:25:48.931Z,77.94
2023-11-04T17:28:22.916Z,77.97
2023-11-04T17:30:54.618Z,78.28
2023-11-04T17:33:25.481Z,78.22
2023-11-04T17:35:56.267Z,78.27
2023-11-04T17:38:27.640Z,77.97
2023-11-04T17:40:58.097Z,78.23
2023-11-04T17:43:34.458Z,78.04
2023-11-04T17:46:07.062Z,77.79
2023-11-04T17:48:37.839Z,77.99
2023-11-04T17:51:09.034Z,78.13
2023-11-04T17:53:41.505Z,78.10
2023-11-04T17:56:12.580Z,78.42
2023-11-04T17:58:47.003Z,78.23
2023-11-04T18:01:29.589Z,78.52
2023-11-04T18:04:02.683Z,78.31
2023-11-04T18:06:33.349Z,78.26
2023-11-04T18:09:09.593Z,78.72
2023-11-04T18:11:43.233Z,78.46
2023-11-04T18:14:20.890Z,78.41
2023-11-04T18:16:52.008Z,78.71
2023-11-04T18:19:24.014Z,78.57
2023-11-04T18:21:57.648Z,78.36
2023-11-04T18:24:28.591Z,78.82
2023-11-04T18:26:58.913Z,78.60
2023-11-04T18:29:31.884Z,78.56
2023-11-04T18:32:02.819Z,78.56
2023-11-04T18:34:33.359Z,78.25
2023-11-04T18:37:08.666Z,78.26
2023-11-04T18:39:41.833Z,78.52
2023-11-04T18:42:14.983Z,78.33
2023-11-04T18:44:48.969Z,78.59
2023-11-04T18:47:23.806Z,78.58
2023-11-04T18:49:57.465Z,78.75
2023-11-04T18:52:33.273Z,79.09
2023-11-04T18:55:06.551Z,78.72
2023-11-04T18:57:40.147Z,79.20
2023-11-04T19:00:19.655Z,78.71
2023-11-04T19:02:54.063Z,78.77
2023-11-04T19:05:29.387Z,79.15
2023-11-04T19:08:03.498Z,78.88
2023-11-04T19:10:39.642Z,79.14
2023-11-04T19:13:12.278Z,79.04
2023-11-04T19:15:52.281Z,78.74
2023-11-04T19:18:23.534Z,79.23
2023-11-04T19:20:55.474Z,78.81
2023-11-04T19:23:26.162Z,79.09
2023-11-04T19:26:01.882Z,78.97
2023-11-04T19:28:33.572Z,79.33
2023-11-04T19:31:13.872Z,79.15
2023-11-04T19:33:47.697Z,79.25
2023-11-04T19:36:27.890Z,79.09
2023-11-04T19:38:58.808Z,79.33
2023-11-04T19:41:29.678Z,78.99
2023-11-04T19:44:00.205Z,79.06
2023-11-04T19:46:35.791Z,79.32
2023-11-04T19:49:14.468Z,79.27
2023-11-04T19:51:52.641Z,79.52
2023-11-04T19:54:30.206Z,79.83
2023-11-04T19:57:06.478Z,79.83
2023-11-04T19:59:37.796Z,79.46
2023-11-04T20:02:16.206Z,79.64
2023-11-04T20:04:46.677Z,79.36
2023-11-04T20:07:19.995Z,79.70
2023-11-04T20:09:50.725Z,79.57
2023-11-04T20:12:26.734Z,79.77
2023-11-04T20:15:05.930Z,79.84
2023-11-04T20:17:39.342Z,79.50
2023-11-04T20:20:11.441Z,79.97
2023-11-04T20:22:45.207Z,79.75
2023-11-04T20:25:17.373Z,79.73
2023-11-04T20:27:47.811Z,79.84
2023-11-04T20:30:18.714Z,79.72
2023-11-04T20:32:52.379Z,79.79
2023-11-04T20:35:32.668Z,79.34
2023-11-04T20:38:08.459Z,79.69
2023-11-04T20:40:40.340Z,79.68
2023-11-04T20:43:11.071Z,79.31
2023-11-04T20:45:41.898Z,79.27
2023-11-04T20:48:15.933Z,79.50
2023-11-04T20:50:46.285Z,79.41
2023-11-04T20:53:20.956Z,79.50
2023-11-04T20:55:52.509Z,79.69
2023-11-04T20:58:26.447Z,79.27
2023-11-04T21:00:57.687Z,79.67
2023-11-04T21:03:34.883Z,79.54
2023-11-04T21:06:07.105Z,79.18
2023-11-04T21:08:39.417Z,79.64
2023-11-04T21:11:11.661Z,79.73
2023-11-04T21:13:42.123Z,79.60
2023-11-04T21:16:16.027Z,79.87
2023-11-04T21:18:49.761Z,80.78
2023-11-04T21:21:22.792Z,80.77
2023-11-04T21:23:59.195Z,80.94
2023-11-04T21:26:33.251Z,80.48
2023-11-04T21:29:04.341Z,80.56
2023-11-04T21:31:35.067Z,80.59
2023-11-04T21:34:10.953Z,80.23
2023-11-04T21:36:41.204Z,80.34
2023-11-04T21:39:16.928Z,80.39
2023-11-04T21:41:47.443Z,79.77
2023-11-04T21:44:21.575Z,79.59
2023-11-04T21:46:53.502Z,79.89
2023-11-04T21:49:26.779Z,79.70
2023-11-04T21:51:57.798Z,80.01
2023-11-04T21:54:33.760Z,79.79
2023-11-04T21:57:05.089Z,79.93
2023-11-04T21:59:36.275Z,79.32
2023-11-04T22:02:07.474Z,78.89
2023-11-04T22:04:41.334Z,78.99
2023-11-04T22:07:11.703Z,79.03
2023-11-04T22:09:42.860Z,79.23
2023-11-04T22:12:13.161Z,79.31
2023-11-04T22:14:46.539Z,79.27
2023-11-04T22:17:17.934Z,79.34
2023-11-04T22:19:51.481Z,79.00
2023-11-04T22:22:25.017Z,79.00
2023-11-04T22:24:57.826Z,79.17
2023-11-04T22:27:40.176Z,79.64
2023-11-04T22:30:12.073Z,79.94
2023-11-04T22:32:45.799Z,79.98
2023-11-04T22:35:28.103Z,79.89
2023-11-04T22:37:59.540Z,80.21
2023-11-04T22:40:36.768Z,80.12
2023-11-04T22:43:12.294Z,79.63
2023-11-04T22:46:11.392Z,79.70
2023-11-04T22:48:42.365Z,79.73
2023-11-04T22:51:22.227Z,79.48
2023-11-04T22:53:53.267Z,79.98
2023-11-04T22:56:24.204Z,79.95
2023-11-04T22:58:57.947Z,80.04
2023-11-04T23:01:30.076Z,79.78
2023-11-04T23:04:01.068Z,79.69
2023-11-04T23:06:36.738Z,79.79
2023-11-04T23:09:11.630Z,79.60
2023-11-04T23:11:42.548Z,79.49
2023-11-04T23:14:16.239Z,79.08
2023-11-04T23:16:47.697Z,79.05
2023-11-04T23:19:21.014Z,79.60
2023-11-04T23:21:56.213Z,79.81
2023-11-04T23:24:27.015Z,79.43
2023-11-04T23:26:57.876Z,79.16
2023-11-04T23:29:28.477Z,79.13
2023-11-04T23:32:07.146Z,79.31
2023-11-04T23:34:37.799Z,79.72
2023-11-04T23:37:12.429Z,80.14
2023-11-04T23:39:44.999Z,80.07
2023-11-04T23:42:16.138Z,79.99
2023-11-04T23:44:47.216Z,80.28
2023-11-04T23:47:20.649Z,80.65
2023-11-04T23:49:53.523Z,80.88
2023-11-04T23:52:27.587Z,81.38
2023-11-04T23:55:01.498Z,80.78
2023-11-04T23:57:33.541Z,82.69
